sensor_id;sensor_type;location;lat;lon;timestamp;P1;P2;P0
68116;PMS7003;54909;54.464;18.498;2024-03-23T00:56:04;18;12;9
68116;PMS7003;54909;54.464;18.498;2024-03-23T00:59:12;14;12;10
68116;PMS7003;54909;54.464;18.498;2024-03-23T01:02:14;12;11;8
68116;PMS7003;54909;54.464;18.498;2024-03-23T01:05:15;12;11;9
68116;PMS7003;54909;54.464;18.498;2024-03-23T01:08:21;12;10;8
68116;PMS7003;54909;54.464;18.498;2024-03-23T01:11:23;15;11;8
68116;PMS7003;54909;54.464;18.498;2024-03-23T01:14:24;20;14;10
68116;PMS7003;54909;54.464;18.498;2024-03-23T01:17:32;16;13;9
68116;PMS7003;54909;54.464;18.498;2024-03-23T01:20:33;13;11;8
68116;PMS7003;54909;54.464;18.498;2024-03-23T01:23:34;14;13;9
68116;PMS7003;54909;54.464;18.498;2024-03-23T01:26:43;12;12;8
68116;PMS7003;54909;54.464;18.498;2024-03-23T01:29:44;14;11;9
68116;PMS7003;54909;54.464;18.498;2024-03-23T01:32:45;15;12;8
68116;PMS7003;54909;54.464;18.498;2024-03-23T01:35:54;14;11;8
68116;PMS7003;54909;54.464;18.498;2024-03-23T01:38:55;18;11;8
68116;PMS7003;54909;54.464;18.498;2024-03-23T01:41:56;15;12;9
68116;PMS7003;54909;54.464;18.498;2024-03-23T01:45:05;16;12;9
68116;PMS7003;54909;54.464;18.498;2024-03-23T01:48:09;16;13;10
68116;PMS7003;54909;54.464;18.498;2024-03-23T01:51:13;15;13;9
68116;PMS7003;54909;54.464;18.498;2024-03-23T01:54:15;13;10;8
68116;PMS7003;54909;54.464;18.498;2024-03-23T01:57:16;15;13;10
68116;PMS7003;54909;54.464;18.498;2024-03-23T02:00:18;14;10;8
68116;PMS7003;54909;54.464;18.498;2024-03-23T02:03:27;13;9;7
68116;PMS7003;54909;54.464;18.498;2024-03-23T02:06:29;11;10;8
68116;PMS7003;54909;54.464;18.498;2024-03-23T02:09:30;12;11;8
68116;PMS7003;54909;54.464;18.498;2024-03-23T02:12:34;12;11;7
68116;PMS7003;54909;54.464;18.498;2024-03-23T02:15:36;12;10;8
68116;PMS7003;54909;54.464;18.498;2024-03-23T02:18:37;14;12;8
68116;PMS7003;54909;54.464;18.498;2024-03-23T02:21:44;14;11;9
68116;PMS7003;54909;54.464;18.498;2024-03-23T02:24:47;15;11;7
68116;PMS7003;54909;54.464;18.498;2024-03-23T02:27:48;16;14;8
68116;PMS7003;54909;54.464;18.498;2024-03-23T02:30:54;15;11;8
68116;PMS7003;54909;54.464;18.498;2024-03-23T02:33:56;12;10;8
68116;PMS7003;54909;54.464;18.498;2024-03-23T02:36:57;14;9;8
68116;PMS7003;54909;54.464;18.498;2024-03-23T02:40:06;14;12;8
68116;PMS7003;54909;54.464;18.498;2024-03-23T02:43:08;14;11;8
68116;PMS7003;54909;54.464;18.498;2024-03-23T02:46:09;13;12;9
68116;PMS7003;54909;54.464;18.498;2024-03-23T02:49:16;17;12;9
68116;PMS7003;54909;54.464;18.498;2024-03-23T02:52:17;23;17;8
68116;PMS7003;54909;54.464;18.498;2024-03-23T02:55:18;11;9;8
68116;PMS7003;54909;54.464;18.498;2024-03-23T02:58:26;19;14;7
68116;PMS7003;54909;54.464;18.498;2024-03-23T03:01:27;17;12;10
68116;PMS7003;54909;54.464;18.498;2024-03-23T03:04:28;13;11;9
68116;PMS7003;54909;54.464;18.498;2024-03-23T03:07:36;16;12;9
68116;PMS7003;54909;54.464;18.498;2024-03-23T03:10:41;14;11;8
68116;PMS7003;54909;54.464;18.498;2024-03-23T03:13:42;17;12;9
68116;PMS7003;54909;54.464;18.498;2024-03-23T03:16:48;12;12;9
68116;PMS7003;54909;54.464;18.498;2024-03-23T03:19:49;16;14;8
68116;PMS7003;54909;54.464;18.498;2024-03-23T03:22:56;15;15;9
68116;PMS7003;54909;54.464;18.498;2024-03-23T03:25:59;15;10;8
68116;PMS7003;54909;54.464;18.498;2024-03-23T03:29:00;18;11;9
68116;PMS7003;54909;54.464;18.498;2024-03-23T03:32:02;9;8;6
68116;PMS7003;54909;54.464;18.498;2024-03-23T03:35:09;13;10;7
68116;PMS7003;54909;54.464;18.498;2024-03-23T03:38:10;13;11;8
68116;PMS7003;54909;54.464;18.498;2024-03-23T03:41:11;12;10;8
68116;PMS7003;54909;54.464;18.498;2024-03-23T03:44:19;18;14;10
68116;PMS7003;54909;54.464;18.498;2024-03-23T03:47:20;14;10;8
68116;PMS7003;54909;54.464;18.498;2024-03-23T03:50:21;13;10;8
68116;PMS7003;54909;54.464;18.498;2024-03-23T03:53:28;14;11;9
68116;PMS7003;54909;54.464;18.498;2024-03-23T03:56:31;15;12;9
68116;PMS7003;54909;54.464;18.498;2024-03-23T03:59:32;16;11;9
68116;PMS7003;54909;54.464;18.498;2024-03-23T04:02:39;13;11;9
68116;PMS7003;54909;54.464;18.498;2024-03-23T04:05:40;13;12;8
68116;PMS7003;54909;54.464;18.498;2024-03-23T04:08:42;15;11;9
68116;PMS7003;54909;54.464;18.498;2024-03-23T04:11:49;15;12;9
68116;PMS7003;54909;54.464;18.498;2024-03-23T04:14:50;14;11;9
68116;PMS7003;54909;54.464;18.498;2024-03-23T04:17:51;19;14;9
68116;PMS7003;54909;54.464;18.498;2024-03-23T04:20:59;20;16;9
68116;PMS7003;54909;54.464;18.498;2024-03-23T04:24:00;13;10;8
68116;PMS7003;54909;54.464;18.498;2024-03-23T04:27:01;11;10;8
68116;PMS7003;54909;54.464;18.498;2024-03-23T04:30:10;14;11;10
68116;PMS7003;54909;54.464;18.498;2024-03-23T04:33:12;18;13;10
68116;PMS7003;54909;54.464;18.498;2024-03-23T04:36:14;20;15;10
68116;PMS7003;54909;54.464;18.498;2024-03-23T04:39:20;13;12;8
68116;PMS7003;54909;54.464;18.498;2024-03-23T04:42:21;20;15;9
68116;PMS7003;54909;54.464;18.498;2024-03-23T04:45:23;18;14;10
68116;PMS7003;54909;54.464;18.498;2024-03-23T04:48:31;22;16;9
68116;PMS7003;54909;54.464;18.498;2024-03-23T04:51:35;17;14;10
68116;PMS7003;54909;54.464;18.498;2024-03-23T04:54:45;16;14;9
68116;PMS7003;54909;54.464;18.498;2024-03-23T04:57:46;25;19;13
68116;PMS7003;54909;54.464;18.498;2024-03-23T05:00:48;22;20;12
68116;PMS7003;54909;54.464;18.498;2024-03-23T05:03:50;17;14;10
68116;PMS7003;54909;54.464;18.498;2024-03-23T05:06:55;19;16;11
68116;PMS7003;54909;54.464;18.498;2024-03-23T05:09:56;18;12;9
68116;PMS7003;54909;54.464;18.498;2024-03-23T05:12:57;23;18;11
68116;PMS7003;54909;54.464;18.498;2024-03-23T05:16:06;17;14;10
68116;PMS7003;54909;54.464;18.498;2024-03-23T05:19:07;18;15;9
68116;PMS7003;54909;54.464;18.498;2024-03-23T05:22:08;23;14;9
68116;PMS7003;54909;54.464;18.498;2024-03-23T05:25:16;24;14;11
68116;PMS7003;54909;54.464;18.498;2024-03-23T05:28:18;22;16;10
68116;PMS7003;54909;54.464;18.498;2024-03-23T05:34:28;18;12;10
68116;PMS7003;54909;54.464;18.498;2024-03-23T05:37:30;16;15;12
68116;PMS7003;54909;54.464;18.498;2024-03-23T05:40:34;14;11;9
68116;PMS7003;54909;54.464;18.498;2024-03-23T05:43:40;16;12;8
68116;PMS7003;54909;54.464;18.498;2024-03-23T05:46:41;15;13;10
68116;PMS7003;54909;54.464;18.498;2024-03-23T05:49:42;17;14;9
68116;PMS7003;54909;54.464;18.498;2024-03-23T05:52:48;16;14;8
68116;PMS7003;54909;54.464;18.498;2024-03-23T05:55:50;17;13;9
68116;PMS7003;54909;54.464;18.498;2024-03-23T05:58:54;19;12;9
68116;PMS7003;54909;54.464;18.498;2024-03-23T06:01:57;12;11;8
68116;PMS7003;54909;54.464;18.498;2024-03-23T06:04:58;14;12;9
68116;PMS7003;54909;54.464;18.498;2024-03-23T06:08:01;18;12;9
68116;PMS7003;54909;54.464;18.498;2024-03-23T06:11:09;20;15;10
68116;PMS7003;54909;54.464;18.498;2024-03-23T06:14:10;17;13;9
68116;PMS7003;54909;54.464;18.498;2024-03-23T06:17:11;17;11;9
68116;PMS7003;54909;54.464;18.498;2024-03-23T06:20:20;14;11;7
68116;PMS7003;54909;54.464;18.498;2024-03-23T06:23:21;14;12;9
68116;PMS7003;54909;54.464;18.498;2024-03-23T06:26:22;18;16;10
68116;PMS7003;54909;54.464;18.498;2024-03-23T06:29:30;17;14;10
68116;PMS7003;54909;54.464;18.498;2024-03-23T06:32:32;20;18;11
68116;PMS7003;54909;54.464;18.498;2024-03-23T06:35:33;22;17;12
68116;PMS7003;54909;54.464;18.498;2024-03-23T06:38:41;13;13;9
68116;PMS7003;54909;54.464;18.498;2024-03-23T06:41:42;21;17;11
68116;PMS7003;54909;54.464;18.498;2024-03-23T06:44:43;14;14;10
68116;PMS7003;54909;54.464;18.498;2024-03-23T06:47:52;21;18;11
68116;PMS7003;54909;54.464;18.498;2024-03-23T06:50:59;21;15;12
68116;PMS7003;54909;54.464;18.498;2024-03-23T06:54:00;21;17;12
68116;PMS7003;54909;54.464;18.498;2024-03-23T06:57:02;16;14;10
68116;PMS7003;54909;54.464;18.498;2024-03-23T07:00:04;19;15;11
68116;PMS7003;54909;54.464;18.498;2024-03-23T07:03:10;16;13;9
68116;PMS7003;54909;54.464;18.498;2024-03-23T07:06:13;23;15;10
68116;PMS7003;54909;54.464;18.498;2024-03-23T07:09:14;20;15;10
68116;PMS7003;54909;54.464;18.498;2024-03-23T07:12:15;22;18;13
68116;PMS7003;54909;54.464;18.498;2024-03-23T07:15:23;17;13;10
68116;PMS7003;54909;54.464;18.498;2024-03-23T07:18:24;23;18;10
68116;PMS7003;54909;54.464;18.498;2024-03-23T07:23:32;15;13;9
68116;PMS7003;54909;54.464;18.498;2024-03-23T07:26:34;16;12;9
68116;PMS7003;54909;54.464;18.498;2024-03-23T07:29:42;13;10;7
68116;PMS7003;54909;54.464;18.498;2024-03-23T07:32:45;16;13;6
68116;PMS7003;54909;54.464;18.498;2024-03-23T07:35:46;11;8;7
68116;PMS7003;54909;54.464;18.498;2024-03-23T07:38:51;17;14;11
68116;PMS7003;54909;54.464;18.498;2024-03-23T07:41:54;12;10;8
68116;PMS7003;54909;54.464;18.498;2024-03-23T07:44:55;16;12;7
68116;PMS7003;54909;54.464;18.498;2024-03-23T07:48:02;13;12;7
68116;PMS7003;54909;54.464;18.498;2024-03-23T07:51:04;11;9;8
68116;PMS7003;54909;54.464;18.498;2024-03-23T07:54:13;14;11;8
68116;PMS7003;54909;54.464;18.498;2024-03-23T07:57:15;11;8;7
68116;PMS7003;54909;54.464;18.498;2024-03-23T08:00:16;16;10;7
68116;PMS7003;54909;54.464;18.498;2024-03-23T08:03:18;13;9;7
68116;PMS7003;54909;54.464;18.498;2024-03-23T08:06:22;16;10;7
68116;PMS7003;54909;54.464;18.498;2024-03-23T08:09:24;11;10;8
68116;PMS7003;54909;54.464;18.498;2024-03-23T08:12:25;14;12;9
68116;PMS7003;54909;54.464;18.498;2024-03-23T08:15:33;15;12;7
68116;PMS7003;54909;54.464;18.498;2024-03-23T08:18:34;16;12;10
68116;PMS7003;54909;54.464;18.498;2024-03-23T08:21:35;19;16;9
68116;PMS7003;54909;54.464;18.498;2024-03-23T08:24:44;17;10;9
68116;PMS7003;54909;54.464;18.498;2024-03-23T08:27:45;12;12;10
68116;PMS7003;54909;54.464;18.498;2024-03-23T08:30:46;22;14;9
68116;PMS7003;54909;54.464;18.498;2024-03-23T08:33:55;14;12;8
68116;PMS7003;54909;54.464;18.498;2024-03-23T08:36:56;15;14;9
68116;PMS7003;54909;54.464;18.498;2024-03-23T08:39:57;11;8;6
68116;PMS7003;54909;54.464;18.498;2024-03-23T08:43:07;18;13;7
68116;PMS7003;54909;54.464;18.498;2024-03-23T08:46:11;11;8;7
68116;PMS7003;54909;54.464;18.498;2024-03-23T08:49:14;14;10;9
68116;PMS7003;54909;54.464;18.498;2024-03-23T08:52:17;13;10;8
68116;PMS7003;54909;54.464;18.498;2024-03-23T08:55:18;12;8;5
68116;PMS7003;54909;54.464;18.498;2024-03-23T08:58:20;10;9;7
68116;PMS7003;54909;54.464;18.498;2024-03-23T09:01:27;12;9;7
68116;PMS7003;54909;54.464;18.498;2024-03-23T09:04:28;14;9;6
68116;PMS7003;54909;54.464;18.498;2024-03-23T09:07:32;9;9;7
68116;PMS7003;54909;54.464;18.498;2024-03-23T09:10:39;13;10;8
68116;PMS7003;54909;54.464;18.498;2024-03-23T09:13:41;10;9;6
68116;PMS7003;54909;54.464;18.498;2024-03-23T09:16:42;9;9;7
68116;PMS7003;54909;54.464;18.498;2024-03-23T09:19:46;12;9;7
68116;PMS7003;54909;54.464;18.498;2024-03-23T09:22:50;9;7;6
68116;PMS7003;54909;54.464;18.498;2024-03-23T09:25:52;13;9;8
68116;PMS7003;54909;54.464;18.498;2024-03-23T09:28:56;10;8;7
68116;PMS7003;54909;54.464;18.498;2024-03-23T09:31:57;9;7;6
68116;PMS7003;54909;54.464;18.498;2024-03-23T09:34:58;10;8;8
68116;PMS7003;54909;54.464;18.498;2024-03-23T09:38:05;11;7;5
68116;PMS7003;54909;54.464;18.498;2024-03-23T09:41:09;11;8;6
68116;PMS7003;54909;54.464;18.498;2024-03-23T09:44:12;15;11;9
68116;PMS7003;54909;54.464;18.498;2024-03-23T09:47:15;8;8;7
68116;PMS7003;54909;54.464;18.498;2024-03-23T09:50:16;8;8;7
68116;PMS7003;54909;54.464;18.498;2024-03-23T09:53:17;10;9;6
68116;PMS7003;54909;54.464;18.498;2024-03-23T09:56:24;13;9;7
68116;PMS7003;54909;54.464;18.498;2024-03-23T09:59:25;16;10;6
68116;PMS7003;54909;54.464;18.498;2024-03-23T10:02:27;14;9;7
68116;PMS7003;54909;54.464;18.498;2024-03-23T10:05:34;11;9;6
68116;PMS7003;54909;54.464;18.498;2024-03-23T10:08:35;14;10;7
68116;PMS7003;54909;54.464;18.498;2024-03-23T10:11:36;9;8;7
68116;PMS7003;54909;54.464;18.498;2024-03-23T10:14:43;7;6;5
68116;PMS7003;54909;54.464;18.498;2024-03-23T10:17:45;8;6;5
68116;PMS7003;54909;54.464;18.498;2024-03-23T10:20:51;8;5;4
68116;PMS7003;54909;54.464;18.498;2024-03-23T10:23:58;8;8;6
68116;PMS7003;54909;54.464;18.498;2024-03-23T10:27:09;12;9;6
68116;PMS7003;54909;54.464;18.498;2024-03-23T10:30:11;8;6;5
68116;PMS7003;54909;54.464;18.498;2024-03-23T10:33:15;9;7;5
68116;PMS7003;54909;54.464;18.498;2024-03-23T10:36:18;7;7;4
68116;PMS7003;54909;54.464;18.498;2024-03-23T10:39:21;9;5;4
68116;PMS7003;54909;54.464;18.498;2024-03-23T10:42:24;7;5;5
68116;PMS7003;54909;54.464;18.498;2024-03-23T10:45:25;6;6;4
68116;PMS7003;54909;54.464;18.498;2024-03-23T10:48:27;10;5;4
68116;PMS7003;54909;54.464;18.498;2024-03-23T10:51:28;6;4;3
68116;PMS7003;54909;54.464;18.498;2024-03-23T10:54:30;9;8;6
68116;PMS7003;54909;54.464;18.498;2024-03-23T11:00:44;9;6;4
68116;PMS7003;54909;54.464;18.498;2024-03-23T11:03:46;10;6;5
68116;PMS7003;54909;54.464;18.498;2024-03-23T11:06:47;7;4;4
68116;PMS7003;54909;54.464;18.498;2024-03-23T11:09:50;10;9;6
68116;PMS7003;54909;54.464;18.498;2024-03-23T11:12:53;10;6;5
68116;PMS7003;54909;54.464;18.498;2024-03-23T11:15:54;10;6;5
68116;PMS7003;54909;54.464;18.498;2024-03-23T11:22:16;6;5;4
68116;PMS7003;54909;54.464;18.498;2024-03-23T11:25:29;8;5;4
68116;PMS7003;54909;54.464;18.498;2024-03-23T11:28:30;16;10;7
68116;PMS7003;54909;54.464;18.498;2024-03-23T11:31:31;29;19;9
68116;PMS7003;54909;54.464;18.498;2024-03-23T11:34:32;10;8;7
68116;PMS7003;54909;54.464;18.498;2024-03-23T11:37:37;10;7;5
68116;PMS7003;54909;54.464;18.498;2024-03-23T11:40:39;6;6;4
68116;PMS7003;54909;54.464;18.498;2024-03-23T11:43:41;6;4;3
68116;PMS7003;54909;54.464;18.498;2024-03-23T11:46:42;11;7;5
68116;PMS7003;54909;54.464;18.498;2024-03-23T11:49:48;7;4;3
68116;PMS7003;54909;54.464;18.498;2024-03-23T11:52:49;5;3;3
68116;PMS7003;54909;54.464;18.498;2024-03-23T11:55:51;6;4;2
68116;PMS7003;54909;54.464;18.498;2024-03-23T11:58:55;5;3;2
68116;PMS7003;54909;54.464;18.498;2024-03-23T12:01:56;5;4;3
68116;PMS7003;54909;54.464;18.498;2024-03-23T12:04:57;4;3;2
68116;PMS7003;54909;54.464;18.498;2024-03-23T12:11:18;6;3;3
68116;PMS7003;54909;54.464;18.498;2024-03-23T12:14:20;7;5;5
68116;PMS7003;54909;54.464;18.498;2024-03-23T12:17:21;5;3;3
68116;PMS7003;54909;54.464;18.498;2024-03-23T12:20:22;4;4;3
68116;PMS7003;54909;54.464;18.498;2024-03-23T12:23:23;6;3;3
68116;PMS7003;54909;54.464;18.498;2024-03-23T12:26:24;4;4;3
68116;PMS7003;54909;54.464;18.498;2024-03-23T12:29:27;5;5;4
68116;PMS7003;54909;54.464;18.498;2024-03-23T12:32:29;5;4;3
68116;PMS7003;54909;54.464;18.498;2024-03-23T12:35:32;5;4;4
68116;PMS7003;54909;54.464;18.498;2024-03-23T12:38:33;8;7;6
68116;PMS7003;54909;54.464;18.498;2024-03-23T12:41:34;14;12;10
68116;PMS7003;54909;54.464;18.498;2024-03-23T12:44:42;20;16;13
68116;PMS7003;54909;54.464;18.498;2024-03-23T12:47:43;16;15;10
68116;PMS7003;54909;54.464;18.498;2024-03-23T12:50:44;8;5;4
68116;PMS7003;54909;54.464;18.498;2024-03-23T12:53:51;11;8;5
68116;PMS7003;54909;54.464;18.498;2024-03-23T12:56:52;10;8;5
68116;PMS7003;54909;54.464;18.498;2024-03-23T12:59:53;14;10;8
68116;PMS7003;54909;54.464;18.498;2024-03-23T13:03:00;14;11;8
68116;PMS7003;54909;54.464;18.498;2024-03-23T13:06:01;16;13;10
68116;PMS7003;54909;54.464;18.498;2024-03-23T13:09:08;15;10;8
68116;PMS7003;54909;54.464;18.498;2024-03-23T13:12:10;17;12;8
68116;PMS7003;54909;54.464;18.498;2024-03-23T13:15:15;10;10;8
68116;PMS7003;54909;54.464;18.498;2024-03-23T13:18:19;11;10;7
68116;PMS7003;54909;54.464;18.498;2024-03-23T13:21:20;14;12;9
68116;PMS7003;54909;54.464;18.498;2024-03-23T13:24:24;17;9;7
68116;PMS7003;54909;54.464;18.498;2024-03-23T13:27:26;26;21;11
68116;PMS7003;54909;54.464;18.498;2024-03-23T13:30:31;14;10;8
68116;PMS7003;54909;54.464;18.498;2024-03-23T13:33:32;13;10;7
68116;PMS7003;54909;54.464;18.498;2024-03-23T13:36:34;15;11;8
68116;PMS7003;54909;54.464;18.498;2024-03-23T13:39:41;13;9;7
68116;PMS7003;54909;54.464;18.498;2024-03-23T13:42:42;9;7;6
68116;PMS7003;54909;54.464;18.498;2024-03-23T13:45:43;13;9;6
68116;PMS7003;54909;54.464;18.498;2024-03-23T13:48:51;9;8;5
68116;PMS7003;54909;54.464;18.498;2024-03-23T13:51:53;15;12;9
68116;PMS7003;54909;54.464;18.498;2024-03-23T13:54:55;23;19;13
68116;PMS7003;54909;54.464;18.498;2024-03-23T13:58:01;13;8;6
68116;PMS7003;54909;54.464;18.498;2024-03-23T14:01:03;23;22;11
68116;PMS7003;54909;54.464;18.498;2024-03-23T14:04:04;17;14;11
68116;PMS7003;54909;54.464;18.498;2024-03-23T14:07:11;14;11;8
68116;PMS7003;54909;54.464;18.498;2024-03-23T14:10:12;14;10;8
68116;PMS7003;54909;54.464;18.498;2024-03-23T14:13:14;9;8;5
68116;PMS7003;54909;54.464;18.498;2024-03-23T14:16:21;14;10;7
68116;PMS7003;54909;54.464;18.498;2024-03-23T14:19:22;15;11;9
68116;PMS7003;54909;54.464;18.498;2024-03-23T14:22:24;18;14;10
68116;PMS7003;54909;54.464;18.498;2024-03-23T14:25:31;19;10;8
68116;PMS7003;54909;54.464;18.498;2024-03-23T14:28:33;25;16;13
68116;PMS7003;54909;54.464;18.498;2024-03-23T14:31:35;23;19;12
68116;PMS7003;54909;54.464;18.498;2024-03-23T14:34:43;22;18;10
68116;PMS7003;54909;54.464;18.498;2024-03-23T14:37:44;23;18;12
68116;PMS7003;54909;54.464;18.498;2024-03-23T14:40:47;15;13;9
68116;PMS7003;54909;54.464;18.498;2024-03-23T14:43:54;22;17;14
68116;PMS7003;54909;54.464;18.498;2024-03-23T14:46:55;17;13;9
68116;PMS7003;54909;54.464;18.498;2024-03-23T14:49:56;13;12;7
68116;PMS7003;54909;54.464;18.498;2024-03-23T14:53:04;16;13;8
68116;PMS7003;54909;54.464;18.498;2024-03-23T14:56:05;43;36;23
68116;PMS7003;54909;54.464;18.498;2024-03-23T14:59:07;20;14;9
68116;PMS7003;54909;54.464;18.498;2024-03-23T15:02:16;14;10;7
68116;PMS7003;54909;54.464;18.498;2024-03-23T15:05:17;11;9;7
68116;PMS7003;54909;54.464;18.498;2024-03-23T15:08:18;14;9;7
68116;PMS7003;54909;54.464;18.498;2024-03-23T15:11:25;14;11;7
68116;PMS7003;54909;54.464;18.498;2024-03-23T15:14:26;13;11;8
68116;PMS7003;54909;54.464;18.498;2024-03-23T15:17:28;26;22;12
68116;PMS7003;54909;54.464;18.498;2024-03-23T15:20:37;14;11;7
68116;PMS7003;54909;54.464;18.498;2024-03-23T15:23:39;18;11;7
68116;PMS7003;54909;54.464;18.498;2024-03-23T15:26:42;17;11;9
68116;PMS7003;54909;54.464;18.498;2024-03-23T15:29:48;13;9;7
68116;PMS7003;54909;54.464;18.498;2024-03-23T15:32:49;13;13;10
68116;PMS7003;54909;54.464;18.498;2024-03-23T15:35:50;14;13;9
68116;PMS7003;54909;54.464;18.498;2024-03-23T15:38:58;22;19;14
68116;PMS7003;54909;54.464;18.498;2024-03-23T15:41:59;19;18;14
68116;PMS7003;54909;54.464;18.498;2024-03-23T15:45:00;28;25;15
68116;PMS7003;54909;54.464;18.498;2024-03-23T15:48:10;17;15;11
68116;PMS7003;54909;54.464;18.498;2024-03-23T15:51:11;20;16;11
68116;PMS7003;54909;54.464;18.498;2024-03-23T15:54:12;27;22;14
68116;PMS7003;54909;54.464;18.498;2024-03-23T15:57:20;29;25;17
68116;PMS7003;54909;54.464;18.498;2024-03-23T16:00:21;16;13;11
68116;PMS7003;54909;54.464;18.498;2024-03-23T16:07:09;16;13;9
68116;PMS7003;54909;54.464;18.498;2024-03-23T16:10:10;47;37;26
68116;PMS7003;54909;54.464;18.498;2024-03-23T16:13:12;15;14;10
68116;PMS7003;54909;54.464;18.498;2024-03-23T16:16:13;9;8;6
68116;PMS7003;54909;54.464;18.498;2024-03-23T16:19:16;11;9;5
68116;PMS7003;54909;54.464;18.498;2024-03-23T16:22:20;7;6;5
68116;PMS7003;54909;54.464;18.498;2024-03-23T16:25:22;7;7;4
68116;PMS7003;54909;54.464;18.498;2024-03-23T16:28:31;7;5;4
68116;PMS7003;54909;54.464;18.498;2024-03-23T16:31:33;7;6;5
68116;PMS7003;54909;54.464;18.498;2024-03-23T16:34:35;14;10;7
68116;PMS7003;54909;54.464;18.498;2024-03-23T16:37:37;18;14;9
68116;PMS7003;54909;54.464;18.498;2024-03-23T16:40:42;27;22;14
68116;PMS7003;54909;54.464;18.498;2024-03-23T16:43:54;33;27;16
68116;PMS7003;54909;54.464;18.498;2024-03-23T16:46:55;12;10;7
68116;PMS7003;54909;54.464;18.498;2024-03-23T16:49:57;15;10;6
68116;PMS7003;54909;54.464;18.498;2024-03-23T16:52:59;14;10;7
68116;PMS7003;54909;54.464;18.498;2024-03-23T16:56:01;13;10;9
68116;PMS7003;54909;54.464;18.498;2024-03-23T16:59:09;13;8;7
68116;PMS7003;54909;54.464;18.498;2024-03-23T17:02:10;14;12;8
68116;PMS7003;54909;54.464;18.498;2024-03-23T17:05:11;16;13;10
68116;PMS7003;54909;54.464;18.498;2024-03-23T17:08:13;19;17;12
68116;PMS7003;54909;54.464;18.498;2024-03-23T17:11:15;20;16;11
68116;PMS7003;54909;54.464;18.498;2024-03-23T17:14:18;21;16;12
68116;PMS7003;54909;54.464;18.498;2024-03-23T17:17:26;20;19;13
68116;PMS7003;54909;54.464;18.498;2024-03-23T17:20:28;24;21;17
68116;PMS7003;54909;54.464;18.498;2024-03-23T17:23:30;21;17;12
68116;PMS7003;54909;54.464;18.498;2024-03-23T17:26:36;17;15;12
68116;PMS7003;54909;54.464;18.498;2024-03-23T17:29:37;17;15;11
68116;PMS7003;54909;54.464;18.498;2024-03-23T17:32:38;16;14;10
68116;PMS7003;54909;54.464;18.498;2024-03-23T17:35:48;21;16;12
68116;PMS7003;54909;54.464;18.498;2024-03-23T17:38:49;17;16;11
68116;PMS7003;54909;54.464;18.498;2024-03-23T17:41:50;18;13;10
68116;PMS7003;54909;54.464;18.498;2024-03-23T17:44:59;20;17;11
68116;PMS7003;54909;54.464;18.498;2024-03-23T17:48:00;12;10;7
68116;PMS7003;54909;54.464;18.498;2024-03-23T17:51:02;22;18;12
68116;PMS7003;54909;54.464;18.498;2024-03-23T17:54:09;12;10;7
68116;PMS7003;54909;54.464;18.498;2024-03-23T17:57:13;15;13;10
68116;PMS7003;54909;54.464;18.498;2024-03-23T18:00:14;22;16;13
68116;PMS7003;54909;54.464;18.498;2024-03-23T18:03:20;27;22;12
68116;PMS7003;54909;54.464;18.498;2024-03-23T18:06:22;16;12;10
68116;PMS7003;54909;54.464;18.498;2024-03-23T18:09:23;16;14;11
68116;PMS7003;54909;54.464;18.498;2024-03-23T18:12:31;24;23;18
68116;PMS7003;54909;54.464;18.498;2024-03-23T18:15:33;21;19;13
68116;PMS7003;54909;54.464;18.498;2024-03-23T18:18:34;21;17;13
68116;PMS7003;54909;54.464;18.498;2024-03-23T18:21:43;31;24;15
68116;PMS7003;54909;54.464;18.498;2024-03-23T18:24:44;29;25;15
68116;PMS7003;54909;54.464;18.498;2024-03-23T18:27:45;37;28;20
68116;PMS7003;54909;54.464;18.498;2024-03-23T18:30:57;43;35;22
68116;PMS7003;54909;54.464;18.498;2024-03-23T18:34:00;77;63;37
68116;PMS7003;54909;54.464;18.498;2024-03-23T18:37:01;59;46;30
68116;PMS7003;54909;54.464;18.498;2024-03-23T18:40:07;31;28;20
68116;PMS7003;54909;54.464;18.498;2024-03-23T18:43:09;25;22;19
68116;PMS7003;54909;54.464;18.498;2024-03-23T18:46:10;18;16;12
68116;PMS7003;54909;54.464;18.498;2024-03-23T18:49:19;28;24;15
68116;PMS7003;54909;54.464;18.498;2024-03-23T18:52:20;28;24;15
68116;PMS7003;54909;54.464;18.498;2024-03-23T18:55:21;32;23;18
68116;PMS7003;54909;54.464;18.498;2024-03-23T18:58:30;26;24;15
68116;PMS7003;54909;54.464;18.498;2024-03-23T19:01:32;29;24;15
68116;PMS7003;54909;54.464;18.498;2024-03-23T19:04:36;30;23;15
68116;PMS7003;54909;54.464;18.498;2024-03-23T19:07:41;36;27;16
68116;PMS7003;54909;54.464;18.498;2024-03-23T19:10:42;28;25;17
68116;PMS7003;54909;54.464;18.498;2024-03-23T19:13:43;31;27;18
68116;PMS7003;54909;54.464;18.498;2024-03-23T19:16:53;37;31;18
68116;PMS7003;54909;54.464;18.498;2024-03-23T19:19:55;36;30;18
68116;PMS7003;54909;54.464;18.498;2024-03-23T19:22:56;26;25;18
68116;PMS7003;54909;54.464;18.498;2024-03-23T19:26:03;33;24;17
68116;PMS7003;54909;54.464;18.498;2024-03-23T19:29:05;40;33;19
68116;PMS7003;54909;54.464;18.498;2024-03-23T19:32:06;39;30;20
68116;PMS7003;54909;54.464;18.498;2024-03-23T19:35:14;27;23;17
68116;PMS7003;54909;54.464;18.498;2024-03-23T19:38:17;30;28;17
68116;PMS7003;54909;54.464;18.498;2024-03-23T19:41:18;32;27;17
68116;PMS7003;54909;54.464;18.498;2024-03-23T19:44:26;31;28;16
68116;PMS7003;54909;54.464;18.498;2024-03-23T19:47:27;26;22;13
68116;PMS7003;54909;54.464;18.498;2024-03-23T19:50:29;24;19;13
68116;PMS7003;54909;54.464;18.498;2024-03-23T19:53:38;24;21;14
68116;PMS7003;54909;54.464;18.498;2024-03-23T19:56:39;25;22;14
68116;PMS7003;54909;54.464;18.498;2024-03-23T19:59:41;28;21;15
68116;PMS7003;54909;54.464;18.498;2024-03-23T20:02:49;27;21;15
68116;PMS7003;54909;54.464;18.498;2024-03-23T20:08:58;22;19;13
68116;PMS7003;54909;54.464;18.498;2024-03-23T20:12:01;27;23;16
68116;PMS7003;54909;54.464;18.498;2024-03-23T20:15:02;27;23;12
68116;PMS7003;54909;54.464;18.498;2024-03-23T20:18:04;35;27;15
68116;PMS7003;54909;54.464;18.498;2024-03-23T20:21:13;33;25;16
68116;PMS7003;54909;54.464;18.498;2024-03-23T20:24:15;33;29;16
68116;PMS7003;54909;54.464;18.498;2024-03-23T20:27:16;22;19;13
68116;PMS7003;54909;54.464;18.498;2024-03-23T20:30:27;26;19;14
68116;PMS7003;54909;54.464;18.498;2024-03-23T20:33:28;30;25;14
68116;PMS7003;54909;54.464;18.498;2024-03-23T20:36:29;30;26;15
68116;PMS7003;54909;54.464;18.498;2024-03-23T20:39:39;31;23;14
68116;PMS7003;54909;54.464;18.498;2024-03-23T20:42:40;32;23;14
68116;PMS7003;54909;54.464;18.498;2024-03-23T20:45:41;29;21;13
68116;PMS7003;54909;54.464;18.498;2024-03-23T20:48:51;30;25;15
68116;PMS7003;54909;54.464;18.498;2024-03-23T20:51:52;26;21;12
68116;PMS7003;54909;54.464;18.498;2024-03-23T20:54:53;28;23;14